SYR weather

Syracuse Hancock International Airport
Syracuse, New York, United States

Public forecast

Using degrees Fahrenheit for public forecast. Weather courtesy of forecast.io.

METAR (pilot weather report)

Retrieved 2019/05/20 18:16 UTC (5 minutes ago):

KSYR 201816Z 33013G20KT 10SM BKN045 BKN055 OVC075 21/13 A2973 RMK AO2 WSHFT 1756 T02060128

TAF (pilot weather forecast)

Retrieved 2019/05/20 18:27 UTC (0 seconds ago):

TAF KSYR 201725Z 2018/2118 27018G25KT P6SM BKN050 FM210200 27017G24KT P6SM OVC025 FM211100 29012KT P6SM SCT040